X  Schlie├čen Metar Luftfahrt Wetterdaten     LGSO Syros Airport
Temperatur
15°C Temperatur
12°C Taupunkt
82% Feuchtigkeit



Wind
8 KM/H
5 MPH
2 M/S
4 KTS



260°
West
Aktuelle Wetterlage

Klar Klar
Luftdruck 1008.92 (hPa) - 29.79 (inHg)
Sichtweite 6.2 (Meile) - 10 (km)
Flughafen
Flughafen Code LGSO

Position : Syros Airport
Entfernung: 3 (km)

Metar:
LGSO 260550Z 26004KT CAVOK 15/12 Q1009

Zeit: 26-03-2023 05:50 EEST